sensor_id;sensor_type;location;lat;lon;timestamp;P1;durP1;ratioP1;P2;durP2;ratioP2
5163;SDS011;2601;50.224;10.126;2023-05-07T00:00:36;150.97;;;10.50;;
5163;SDS011;2601;50.224;10.126;2023-05-07T00:03:02;152.07;;;11.10;;
5163;SDS011;2601;50.224;10.126;2023-05-07T00:05:28;151.37;;;10.50;;
5163;SDS011;2601;50.224;10.126;2023-05-07T00:07:53;152.63;;;10.50;;
5163;SDS011;2601;50.224;10.126;2023-05-07T00:10:19;154.50;;;10.90;;
5163;SDS011;2601;50.224;10.126;2023-05-07T00:12:44;151.37;;;10.47;;
5163;SDS011;2601;50.224;10.126;2023-05-07T00:15:10;150.50;;;10.37;;
5163;SDS011;2601;50.224;10.126;2023-05-07T00:17:36;152.23;;;10.83;;
5163;SDS011;2601;50.224;10.126;2023-05-07T00:20:02;151.63;;;10.57;;
5163;SDS011;2601;50.224;10.126;2023-05-07T00:22:28;151.47;;;10.50;;
5163;SDS011;2601;50.224;10.126;2023-05-07T00:24:55;152.00;;;10.97;;
5163;SDS011;2601;50.224;10.126;2023-05-07T00:27:20;152.87;;;11.27;;
5163;SDS011;2601;50.224;10.126;2023-05-07T00:29:46;150.17;;;10.20;;
5163;SDS011;2601;50.224;10.126;2023-05-07T00:32:12;151.03;;;10.43;;
5163;SDS011;2601;50.224;10.126;2023-05-07T00:34:37;151.77;;;10.80;;
5163;SDS011;2601;50.224;10.126;2023-05-07T00:37:04;152.87;;;11.10;;
5163;SDS011;2601;50.224;10.126;2023-05-07T00:39:32;154.60;;;11.47;;
5163;SDS011;2601;50.224;10.126;2023-05-07T00:41:58;152.50;;;10.93;;
5163;SDS011;2601;50.224;10.126;2023-05-07T00:44:24;151.83;;;11.20;;
5163;SDS011;2601;50.224;10.126;2023-05-07T00:46:50;150.70;;;10.17;;
5163;SDS011;2601;50.224;10.126;2023-05-07T00:49:16;152.40;;;10.70;;
5163;SDS011;2601;50.224;10.126;2023-05-07T00:51:41;151.67;;;11.10;;
5163;SDS011;2601;50.224;10.126;2023-05-07T00:54:07;152.20;;;11.80;;
5163;SDS011;2601;50.224;10.126;2023-05-07T00:56:34;151.73;;;10.70;;
5163;SDS011;2601;50.224;10.126;2023-05-07T00:59:00;152.67;;;11.13;;
5163;SDS011;2601;50.224;10.126;2023-05-07T01:01:27;152.67;;;10.77;;
5163;SDS011;2601;50.224;10.126;2023-05-07T01:03:52;153.73;;;11.00;;
5163;SDS011;2601;50.224;10.126;2023-05-07T01:06:18;150.50;;;10.50;;
5163;SDS011;2601;50.224;10.126;2023-05-07T01:08:46;152.30;;;10.60;;
5163;SDS011;2601;50.224;10.126;2023-05-07T01:11:13;152.60;;;10.70;;
5163;SDS011;2601;50.224;10.126;2023-05-07T01:13:39;151.10;;;10.20;;
5163;SDS011;2601;50.224;10.126;2023-05-07T01:16:06;151.40;;;10.67;;
5163;SDS011;2601;50.224;10.126;2023-05-07T01:18:33;153.17;;;11.80;;
5163;SDS011;2601;50.224;10.126;2023-05-07T01:20:59;153.10;;;11.30;;
5163;SDS011;2601;50.224;10.126;2023-05-07T01:23:28;152.67;;;10.90;;
5163;SDS011;2601;50.224;10.126;2023-05-07T01:25:55;151.67;;;12.00;;
5163;SDS011;2601;50.224;10.126;2023-05-07T01:28:21;152.17;;;11.33;;
5163;SDS011;2601;50.224;10.126;2023-05-07T01:30:49;151.97;;;11.00;;
5163;SDS011;2601;50.224;10.126;2023-05-07T01:33:18;153.60;;;12.23;;
5163;SDS011;2601;50.224;10.126;2023-05-07T01:35:47;151.27;;;10.90;;
5163;SDS011;2601;50.224;10.126;2023-05-07T01:38:15;152.13;;;11.27;;
5163;SDS011;2601;50.224;10.126;2023-05-07T01:40:41;153.20;;;11.73;;
5163;SDS011;2601;50.224;10.126;2023-05-07T01:43:07;152.47;;;12.13;;
5163;SDS011;2601;50.224;10.126;2023-05-07T01:45:34;153.80;;;11.10;;
5163;SDS011;2601;50.224;10.126;2023-05-07T01:47:59;152.60;;;12.00;;
5163;SDS011;2601;50.224;10.126;2023-05-07T01:50:26;152.27;;;11.73;;
5163;SDS011;2601;50.224;10.126;2023-05-07T01:52:52;153.80;;;12.20;;
5163;SDS011;2601;50.224;10.126;2023-05-07T01:55:18;152.10;;;11.00;;
5163;SDS011;2601;50.224;10.126;2023-05-07T01:57:44;152.47;;;11.50;;
5163;SDS011;2601;50.224;10.126;2023-05-07T02:00:09;153.07;;;11.43;;
5163;SDS011;2601;50.224;10.126;2023-05-07T02:02:35;151.80;;;11.13;;
5163;SDS011;2601;50.224;10.126;2023-05-07T02:05:01;153.50;;;11.50;;
5163;SDS011;2601;50.224;10.126;2023-05-07T02:07:27;152.10;;;11.40;;
5163;SDS011;2601;50.224;10.126;2023-05-07T02:09:53;152.97;;;11.70;;
5163;SDS011;2601;50.224;10.126;2023-05-07T02:12:20;153.20;;;12.07;;
5163;SDS011;2601;50.224;10.126;2023-05-07T02:14:46;156.60;;;12.00;;
5163;SDS011;2601;50.224;10.126;2023-05-07T02:17:11;152.77;;;11.37;;
5163;SDS011;2601;50.224;10.126;2023-05-07T02:19:37;151.87;;;11.30;;
5163;SDS011;2601;50.224;10.126;2023-05-07T02:22:02;153.73;;;12.43;;
5163;SDS011;2601;50.224;10.126;2023-05-07T02:24:28;154.80;;;13.43;;
5163;SDS011;2601;50.224;10.126;2023-05-07T02:26:53;155.10;;;13.60;;
5163;SDS011;2601;50.224;10.126;2023-05-07T02:29:19;153.70;;;12.37;;
5163;SDS011;2601;50.224;10.126;2023-05-07T02:31:45;162.80;;;13.00;;
5163;SDS011;2601;50.224;10.126;2023-05-07T02:34:10;154.10;;;13.00;;
5163;SDS011;2601;50.224;10.126;2023-05-07T02:36:36;152.63;;;12.23;;
5163;SDS011;2601;50.224;10.126;2023-05-07T02:39:01;153.93;;;11.93;;
5163;SDS011;2601;50.224;10.126;2023-05-07T02:41:27;152.57;;;12.43;;
5163;SDS011;2601;50.224;10.126;2023-05-07T02:43:53;153.57;;;12.03;;
5163;SDS011;2601;50.224;10.126;2023-05-07T02:46:18;153.40;;;11.80;;
5163;SDS011;2601;50.224;10.126;2023-05-07T02:48:44;154.27;;;12.27;;
5163;SDS011;2601;50.224;10.126;2023-05-07T02:51:09;155.23;;;12.67;;
5163;SDS011;2601;50.224;10.126;2023-05-07T02:53:35;154.07;;;12.80;;
5163;SDS011;2601;50.224;10.126;2023-05-07T02:56:01;153.47;;;12.73;;
5163;SDS011;2601;50.224;10.126;2023-05-07T02:58:27;153.73;;;12.10;;
5163;SDS011;2601;50.224;10.126;2023-05-07T03:00:53;154.37;;;12.90;;
5163;SDS011;2601;50.224;10.126;2023-05-07T03:03:19;152.80;;;12.30;;
5163;SDS011;2601;50.224;10.126;2023-05-07T03:05:45;155.57;;;13.17;;
5163;SDS011;2601;50.224;10.126;2023-05-07T03:08:11;156.17;;;13.50;;
5163;SDS011;2601;50.224;10.126;2023-05-07T03:10:36;155.30;;;12.70;;
5163;SDS011;2601;50.224;10.126;2023-05-07T03:13:02;153.70;;;12.40;;
5163;SDS011;2601;50.224;10.126;2023-05-07T03:15:28;154.27;;;13.30;;
5163;SDS011;2601;50.224;10.126;2023-05-07T03:17:53;155.10;;;13.70;;
5163;SDS011;2601;50.224;10.126;2023-05-07T03:20:19;155.60;;;12.87;;
5163;SDS011;2601;50.224;10.126;2023-05-07T03:22:45;154.13;;;12.37;;
5163;SDS011;2601;50.224;10.126;2023-05-07T03:25:10;155.97;;;12.80;;
5163;SDS011;2601;50.224;10.126;2023-05-07T03:27:36;156.30;;;14.13;;
5163;SDS011;2601;50.224;10.126;2023-05-07T03:30:02;156.77;;;13.47;;
5163;SDS011;2601;50.224;10.126;2023-05-07T03:32:28;156.60;;;14.77;;
5163;SDS011;2601;50.224;10.126;2023-05-07T03:34:54;156.97;;;14.47;;
5163;SDS011;2601;50.224;10.126;2023-05-07T03:37:20;154.80;;;13.30;;
5163;SDS011;2601;50.224;10.126;2023-05-07T03:39:46;157.20;;;14.27;;
5163;SDS011;2601;50.224;10.126;2023-05-07T03:42:12;155.47;;;13.43;;
5163;SDS011;2601;50.224;10.126;2023-05-07T03:44:37;157.33;;;14.53;;
5163;SDS011;2601;50.224;10.126;2023-05-07T03:47:03;155.97;;;13.87;;
5163;SDS011;2601;50.224;10.126;2023-05-07T03:49:29;155.83;;;13.60;;
5163;SDS011;2601;50.224;10.126;2023-05-07T03:51:54;156.20;;;14.77;;
5163;SDS011;2601;50.224;10.126;2023-05-07T03:54:20;156.47;;;14.17;;
5163;SDS011;2601;50.224;10.126;2023-05-07T03:56:46;157.17;;;14.30;;
5163;SDS011;2601;50.224;10.126;2023-05-07T03:59:15;155.43;;;13.60;;
5163;SDS011;2601;50.224;10.126;2023-05-07T04:01:40;155.20;;;13.90;;
5163;SDS011;2601;50.224;10.126;2023-05-07T04:04:06;156.07;;;14.20;;
5163;SDS011;2601;50.224;10.126;2023-05-07T04:06:31;157.53;;;14.60;;
5163;SDS011;2601;50.224;10.126;2023-05-07T04:08:57;156.37;;;14.33;;
5163;SDS011;2601;50.224;10.126;2023-05-07T04:11:22;154.90;;;14.20;;
5163;SDS011;2601;50.224;10.126;2023-05-07T04:13:48;155.70;;;14.00;;
5163;SDS011;2601;50.224;10.126;2023-05-07T04:16:14;157.80;;;14.20;;
5163;SDS011;2601;50.224;10.126;2023-05-07T04:18:39;158.07;;;15.57;;
5163;SDS011;2601;50.224;10.126;2023-05-07T04:21:05;156.50;;;14.47;;
5163;SDS011;2601;50.224;10.126;2023-05-07T04:23:38;156.93;;;14.40;;
5163;SDS011;2601;50.224;10.126;2023-05-07T04:26:03;158.07;;;15.00;;
5163;SDS011;2601;50.224;10.126;2023-05-07T04:28:29;156.50;;;14.67;;
5163;SDS011;2601;50.224;10.126;2023-05-07T04:30:55;156.67;;;14.30;;
5163;SDS011;2601;50.224;10.126;2023-05-07T04:33:20;156.40;;;13.83;;
5163;SDS011;2601;50.224;10.126;2023-05-07T04:35:46;157.20;;;14.50;;
5163;SDS011;2601;50.224;10.126;2023-05-07T04:38:11;157.37;;;14.97;;
5163;SDS011;2601;50.224;10.126;2023-05-07T04:40:37;157.20;;;15.00;;
5163;SDS011;2601;50.224;10.126;2023-05-07T04:43:03;156.00;;;14.50;;
5163;SDS011;2601;50.224;10.126;2023-05-07T04:45:29;156.83;;;15.10;;
5163;SDS011;2601;50.224;10.126;2023-05-07T04:47:55;157.53;;;14.13;;
5163;SDS011;2601;50.224;10.126;2023-05-07T04:50:20;156.43;;;14.10;;
5163;SDS011;2601;50.224;10.126;2023-05-07T04:52:48;155.83;;;14.57;;
5163;SDS011;2601;50.224;10.126;2023-05-07T04:55:14;156.67;;;14.90;;
5163;SDS011;2601;50.224;10.126;2023-05-07T04:57:39;156.17;;;14.03;;
5163;SDS011;2601;50.224;10.126;2023-05-07T05:00:06;156.37;;;14.70;;
5163;SDS011;2601;50.224;10.126;2023-05-07T05:02:33;156.87;;;15.60;;
5163;SDS011;2601;50.224;10.126;2023-05-07T05:05:00;154.87;;;14.20;;
5163;SDS011;2601;50.224;10.126;2023-05-07T05:07:27;157.07;;;14.27;;
5163;SDS011;2601;50.224;10.126;2023-05-07T05:09:53;155.97;;;14.17;;
5163;SDS011;2601;50.224;10.126;2023-05-07T05:12:18;157.73;;;14.90;;
5163;SDS011;2601;50.224;10.126;2023-05-07T05:14:44;156.57;;;14.67;;
5163;SDS011;2601;50.224;10.126;2023-05-07T05:17:10;157.97;;;15.03;;
5163;SDS011;2601;50.224;10.126;2023-05-07T05:19:35;157.63;;;14.80;;
5163;SDS011;2601;50.224;10.126;2023-05-07T05:22:01;158.47;;;15.87;;
5163;SDS011;2601;50.224;10.126;2023-05-07T05:24:28;157.57;;;15.27;;
5163;SDS011;2601;50.224;10.126;2023-05-07T05:26:55;158.83;;;16.30;;
5163;SDS011;2601;50.224;10.126;2023-05-07T05:29:20;155.97;;;14.47;;
5163;SDS011;2601;50.224;10.126;2023-05-07T05:31:46;157.80;;;14.53;;
5163;SDS011;2601;50.224;10.126;2023-05-07T05:34:12;158.87;;;16.67;;
5163;SDS011;2601;50.224;10.126;2023-05-07T05:36:37;158.20;;;15.40;;
5163;SDS011;2601;50.224;10.126;2023-05-07T05:39:03;160.10;;;16.87;;
5163;SDS011;2601;50.224;10.126;2023-05-07T05:41:29;159.47;;;16.67;;
5163;SDS011;2601;50.224;10.126;2023-05-07T05:43:55;158.63;;;15.20;;
5163;SDS011;2601;50.224;10.126;2023-05-07T05:46:20;158.60;;;15.67;;
5163;SDS011;2601;50.224;10.126;2023-05-07T05:48:46;156.03;;;14.43;;
5163;SDS011;2601;50.224;10.126;2023-05-07T05:51:12;156.20;;;14.60;;
5163;SDS011;2601;50.224;10.126;2023-05-07T05:53:37;155.60;;;14.87;;
5163;SDS011;2601;50.224;10.126;2023-05-07T05:56:03;157.27;;;14.67;;
5163;SDS011;2601;50.224;10.126;2023-05-07T05:58:29;157.53;;;16.10;;
5163;SDS011;2601;50.224;10.126;2023-05-07T06:00:55;155.60;;;14.07;;
5163;SDS011;2601;50.224;10.126;2023-05-07T06:03:21;157.80;;;15.10;;
5163;SDS011;2601;50.224;10.126;2023-05-07T06:05:47;156.93;;;14.87;;
5163;SDS011;2601;50.224;10.126;2023-05-07T06:08:12;156.47;;;14.70;;
5163;SDS011;2601;50.224;10.126;2023-05-07T06:10:38;157.77;;;15.43;;
5163;SDS011;2601;50.224;10.126;2023-05-07T06:13:04;156.87;;;15.10;;
5163;SDS011;2601;50.224;10.126;2023-05-07T06:15:30;158.13;;;15.53;;
5163;SDS011;2601;50.224;10.126;2023-05-07T06:17:56;159.40;;;15.20;;
5163;SDS011;2601;50.224;10.126;2023-05-07T06:20:22;156.43;;;14.57;;
5163;SDS011;2601;50.224;10.126;2023-05-07T06:22:48;158.10;;;14.83;;
5163;SDS011;2601;50.224;10.126;2023-05-07T06:25:14;157.30;;;16.13;;
5163;SDS011;2601;50.224;10.126;2023-05-07T06:27:39;157.90;;;15.93;;
5163;SDS011;2601;50.224;10.126;2023-05-07T06:30:05;157.67;;;15.70;;
5163;SDS011;2601;50.224;10.126;2023-05-07T06:32:32;157.93;;;15.57;;
5163;SDS011;2601;50.224;10.126;2023-05-07T06:34:57;157.37;;;15.93;;
5163;SDS011;2601;50.224;10.126;2023-05-07T06:37:23;156.77;;;14.57;;
5163;SDS011;2601;50.224;10.126;2023-05-07T06:39:48;160.87;;;17.30;;
5163;SDS011;2601;50.224;10.126;2023-05-07T06:42:14;159.93;;;16.70;;
5163;SDS011;2601;50.224;10.126;2023-05-07T06:44:40;161.40;;;15.17;;
5163;SDS011;2601;50.224;10.126;2023-05-07T06:47:05;157.77;;;15.10;;
5163;SDS011;2601;50.224;10.126;2023-05-07T06:49:31;157.17;;;14.80;;
5163;SDS011;2601;50.224;10.126;2023-05-07T06:51:57;160.50;;;15.80;;
5163;SDS011;2601;50.224;10.126;2023-05-07T06:54:23;159.33;;;16.80;;
5163;SDS011;2601;50.224;10.126;2023-05-07T06:56:48;158.87;;;15.33;;
5163;SDS011;2601;50.224;10.126;2023-05-07T06:59:14;157.50;;;15.00;;
5163;SDS011;2601;50.224;10.126;2023-05-07T07:01:40;156.80;;;15.03;;
5163;SDS011;2601;50.224;10.126;2023-05-07T07:04:06;157.80;;;15.67;;
5163;SDS011;2601;50.224;10.126;2023-05-07T07:06:31;158.43;;;15.27;;
5163;SDS011;2601;50.224;10.126;2023-05-07T07:08:57;159.00;;;15.63;;
5163;SDS011;2601;50.224;10.126;2023-05-07T07:11:24;156.87;;;15.03;;
5163;SDS011;2601;50.224;10.126;2023-05-07T07:13:49;157.47;;;14.80;;
5163;SDS011;2601;50.224;10.126;2023-05-07T07:16:15;157.90;;;15.20;;
5163;SDS011;2601;50.224;10.126;2023-05-07T07:18:41;155.57;;;14.50;;
5163;SDS011;2601;50.224;10.126;2023-05-07T07:21:08;156.07;;;15.20;;
5163;SDS011;2601;50.224;10.126;2023-05-07T07:23:34;156.40;;;13.80;;
5163;SDS011;2601;50.224;10.126;2023-05-07T07:26:00;157.17;;;15.67;;
5163;SDS011;2601;50.224;10.126;2023-05-07T07:28:25;155.27;;;14.23;;
5163;SDS011;2601;50.224;10.126;2023-05-07T07:30:51;158.90;;;15.00;;
5163;SDS011;2601;50.224;10.126;2023-05-07T07:33:16;158.40;;;14.43;;
5163;SDS011;2601;50.224;10.126;2023-05-07T07:35:42;156.50;;;15.27;;
5163;SDS011;2601;50.224;10.126;2023-05-07T07:38:08;156.97;;;14.40;;
5163;SDS011;2601;50.224;10.126;2023-05-07T07:40:36;156.10;;;14.60;;
5163;SDS011;2601;50.224;10.126;2023-05-07T07:43:02;157.27;;;14.40;;
5163;SDS011;2601;50.224;10.126;2023-05-07T07:45:28;158.83;;;16.00;;
5163;SDS011;2601;50.224;10.126;2023-05-07T07:47:54;158.40;;;14.67;;
5163;SDS011;2601;50.224;10.126;2023-05-07T07:50:19;154.80;;;13.30;;
5163;SDS011;2601;50.224;10.126;2023-05-07T07:52:45;157.00;;;14.80;;
5163;SDS011;2601;50.224;10.126;2023-05-07T07:55:11;156.67;;;15.03;;
5163;SDS011;2601;50.224;10.126;2023-05-07T07:57:37;156.83;;;14.43;;
5163;SDS011;2601;50.224;10.126;2023-05-07T08:00:02;158.37;;;15.93;;
5163;SDS011;2601;50.224;10.126;2023-05-07T08:02:29;156.10;;;14.77;;
5163;SDS011;2601;50.224;10.126;2023-05-07T08:04:54;155.73;;;14.43;;
5163;SDS011;2601;50.224;10.126;2023-05-07T08:07:20;155.47;;;14.30;;
5163;SDS011;2601;50.224;10.126;2023-05-07T08:09:47;155.53;;;14.03;;
5163;SDS011;2601;50.224;10.126;2023-05-07T08:12:13;155.30;;;14.00;;
5163;SDS011;2601;50.224;10.126;2023-05-07T08:14:40;157.30;;;15.10;;
5163;SDS011;2601;50.224;10.126;2023-05-07T08:17:06;156.90;;;14.83;;
5163;SDS011;2601;50.224;10.126;2023-05-07T08:19:31;157.13;;;14.83;;
5163;SDS011;2601;50.224;10.126;2023-05-07T08:21:57;155.47;;;14.00;;
5163;SDS011;2601;50.224;10.126;2023-05-07T08:24:23;156.30;;;14.87;;
5163;SDS011;2601;50.224;10.126;2023-05-07T08:26:48;158.17;;;15.07;;
5163;SDS011;2601;50.224;10.126;2023-05-07T08:29:14;154.93;;;14.43;;
5163;SDS011;2601;50.224;10.126;2023-05-07T08:31:40;155.67;;;14.63;;
5163;SDS011;2601;50.224;10.126;2023-05-07T08:34:06;157.57;;;14.80;;
5163;SDS011;2601;50.224;10.126;2023-05-07T08:36:32;156.43;;;15.03;;
5163;SDS011;2601;50.224;10.126;2023-05-07T08:38:57;158.70;;;14.70;;
5163;SDS011;2601;50.224;10.126;2023-05-07T08:41:24;155.37;;;13.70;;
5163;SDS011;2601;50.224;10.126;2023-05-07T08:43:50;165.20;;;13.40;;
5163;SDS011;2601;50.224;10.126;2023-05-07T08:46:17;156.80;;;14.50;;
5163;SDS011;2601;50.224;10.126;2023-05-07T08:48:44;157.43;;;14.90;;
5163;SDS011;2601;50.224;10.126;2023-05-07T08:51:13;155.10;;;13.87;;
5163;SDS011;2601;50.224;10.126;2023-05-07T08:53:42;157.27;;;14.57;;
5163;SDS011;2601;50.224;10.126;2023-05-07T08:56:08;157.67;;;14.33;;
5163;SDS011;2601;50.224;10.126;2023-05-07T08:58:35;157.70;;;13.67;;
5163;SDS011;2601;50.224;10.126;2023-05-07T09:01:02;156.93;;;15.00;;
5163;SDS011;2601;50.224;10.126;2023-05-07T09:03:32;169.10;;;14.90;;
5163;SDS011;2601;50.224;10.126;2023-05-07T09:06:00;161.90;;;15.30;;
5163;SDS011;2601;50.224;10.126;2023-05-07T09:08:26;156.20;;;14.90;;
5163;SDS011;2601;50.224;10.126;2023-05-07T09:10:52;163.20;;;14.50;;
5163;SDS011;2601;50.224;10.126;2023-05-07T09:13:18;155.97;;;13.77;;
5163;SDS011;2601;50.224;10.126;2023-05-07T09:15:44;156.60;;;13.93;;
5163;SDS011;2601;50.224;10.126;2023-05-07T09:18:10;162.20;;;20.70;;
5163;SDS011;2601;50.224;10.126;2023-05-07T09:20:37;161.87;;;17.57;;
5163;SDS011;2601;50.224;10.126;2023-05-07T09:23:03;157.73;;;14.97;;
5163;SDS011;2601;50.224;10.126;2023-05-07T09:25:29;155.07;;;13.33;;
5163;SDS011;2601;50.224;10.126;2023-05-07T09:27:56;157.50;;;14.47;;
5163;SDS011;2601;50.224;10.126;2023-05-07T09:30:22;161.20;;;14.87;;
5163;SDS011;2601;50.224;10.126;2023-05-07T09:32:47;155.57;;;14.50;;
5163;SDS011;2601;50.224;10.126;2023-05-07T09:35:16;166.87;;;15.37;;
5163;SDS011;2601;50.224;10.126;2023-05-07T09:37:42;160.03;;;16.07;;
5163;SDS011;2601;50.224;10.126;2023-05-07T09:40:09;166.77;;;15.20;;
5163;SDS011;2601;50.224;10.126;2023-05-07T09:42:45;158.23;;;14.80;;
5163;SDS011;2601;50.224;10.126;2023-05-07T09:45:12;157.53;;;16.10;;
5163;SDS011;2601;50.224;10.126;2023-05-07T09:47:38;158.57;;;14.23;;
5163;SDS011;2601;50.224;10.126;2023-05-07T09:50:09;159.20;;;15.73;;
5163;SDS011;2601;50.224;10.126;2023-05-07T09:52:37;156.37;;;14.80;;
5163;SDS011;2601;50.224;10.126;2023-05-07T09:55:05;157.33;;;15.70;;
5163;SDS011;2601;50.224;10.126;2023-05-07T09:57:32;159.60;;;15.70;;
5163;SDS011;2601;50.224;10.126;2023-05-07T09:59:58;161.07;;;15.83;;
5163;SDS011;2601;50.224;10.126;2023-05-07T10:02:27;157.57;;;15.13;;
5163;SDS011;2601;50.224;10.126;2023-05-07T10:04:55;159.80;;;16.60;;
5163;SDS011;2601;50.224;10.126;2023-05-07T10:07:23;156.60;;;13.90;;
5163;SDS011;2601;50.224;10.126;2023-05-07T10:09:50;157.87;;;13.97;;
5163;SDS011;2601;50.224;10.126;2023-05-07T10:12:16;158.00;;;15.27;;
5163;SDS011;2601;50.224;10.126;2023-05-07T10:14:43;160.27;;;14.20;;
5163;SDS011;2601;50.224;10.126;2023-05-07T10:17:10;160.20;;;15.23;;
5163;SDS011;2601;50.224;10.126;2023-05-07T10:19:37;156.70;;;14.30;;
5163;SDS011;2601;50.224;10.126;2023-05-07T10:22:04;156.67;;;14.27;;
5163;SDS011;2601;50.224;10.126;2023-05-07T10:24:34;160.90;;;15.33;;
5163;SDS011;2601;50.224;10.126;2023-05-07T10:27:02;159.43;;;15.30;;
5163;SDS011;2601;50.224;10.126;2023-05-07T10:29:33;159.07;;;15.13;;
5163;SDS011;2601;50.224;10.126;2023-05-07T10:35:02;155.30;;;13.87;;
5163;SDS011;2601;50.224;10.126;2023-05-07T10:37:31;156.37;;;14.23;;
5163;SDS011;2601;50.224;10.126;2023-05-07T10:39:57;156.27;;;15.00;;
5163;SDS011;2601;50.224;10.126;2023-05-07T10:42:23;159.80;;;14.90;;
5163;SDS011;2601;50.224;10.126;2023-05-07T10:44:49;156.37;;;14.07;;
5163;SDS011;2601;50.224;10.126;2023-05-07T10:47:15;157.43;;;13.87;;
5163;SDS011;2601;50.224;10.126;2023-05-07T10:52:13;164.80;;;15.80;;
5163;SDS011;2601;50.224;10.126;2023-05-07T10:54:39;159.67;;;15.13;;
5163;SDS011;2601;50.224;10.126;2023-05-07T10:57:32;164.30;;;17.60;;
5163;SDS011;2601;50.224;10.126;2023-05-07T11:00:03;158.40;;;16.20;;
5163;SDS011;2601;50.224;10.126;2023-05-07T11:05:24;161.80;;;15.03;;
5163;SDS011;2601;50.224;10.126;2023-05-07T11:07:54;158.63;;;16.30;;
5163;SDS011;2601;50.224;10.126;2023-05-07T11:13:16;160.70;;;15.97;;
5163;SDS011;2601;50.224;10.126;2023-05-07T11:15:46;160.73;;;17.93;;
5163;SDS011;2601;50.224;10.126;2023-05-07T11:18:16;163.27;;;16.50;;
5163;SDS011;2601;50.224;10.126;2023-05-07T11:20:50;161.97;;;16.20;;
5163;SDS011;2601;50.224;10.126;2023-05-07T11:26:09;169.57;;;18.53;;
5163;SDS011;2601;50.224;10.126;2023-05-07T11:28:42;165.43;;;17.00;;
5163;SDS011;2601;50.224;10.126;2023-05-07T11:31:09;169.17;;;15.97;;
5163;SDS011;2601;50.224;10.126;2023-05-07T11:33:35;160.60;;;15.87;;
5163;SDS011;2601;50.224;10.126;2023-05-07T11:36:02;172.10;;;17.57;;
5163;SDS011;2601;50.224;10.126;2023-05-07T11:38:29;174.30;;;16.97;;
5163;SDS011;2601;50.224;10.126;2023-05-07T11:40:56;163.80;;;15.40;;
5163;SDS011;2601;50.224;10.126;2023-05-07T11:43:25;176.30;;;17.40;;
5163;SDS011;2601;50.224;10.126;2023-05-07T11:45:51;203.20;;;18.67;;
5163;SDS011;2601;50.224;10.126;2023-05-07T11:48:17;166.70;;;14.80;;
5163;SDS011;2601;50.224;10.126;2023-05-07T11:50:53;184.23;;;16.60;;
5163;SDS011;2601;50.224;10.126;2023-05-07T11:53:25;165.87;;;16.27;;
5163;SDS011;2601;50.224;10.126;2023-05-07T11:55:54;173.93;;;16.50;;
5163;SDS011;2601;50.224;10.126;2023-05-07T11:58:21;166.27;;;14.93;;
5163;SDS011;2601;50.224;10.126;2023-05-07T12:00:51;186.07;;;15.77;;
5163;SDS011;2601;50.224;10.126;2023-05-07T12:03:18;182.10;;;16.00;;
5163;SDS011;2601;50.224;10.126;2023-05-07T12:05:44;192.60;;;15.23;;
5163;SDS011;2601;50.224;10.126;2023-05-07T12:08:13;164.80;;;14.60;;
5163;SDS011;2601;50.224;10.126;2023-05-07T12:10:41;163.23;;;14.80;;
5163;SDS011;2601;50.224;10.126;2023-05-07T12:13:16;163.37;;;16.10;;
5163;SDS011;2601;50.224;10.126;2023-05-07T12:15:43;160.97;;;15.20;;
5163;SDS011;2601;50.224;10.126;2023-05-07T12:18:08;166.27;;;16.30;;
5163;SDS011;2601;50.224;10.126;2023-05-07T12:20:36;161.13;;;14.47;;
5163;SDS011;2601;50.224;10.126;2023-05-07T12:23:01;158.00;;;14.70;;
5163;SDS011;2601;50.224;10.126;2023-05-07T12:25:34;156.53;;;13.77;;
5163;SDS011;2601;50.224;10.126;2023-05-07T12:28:04;161.30;;;14.40;;
5163;SDS011;2601;50.224;10.126;2023-05-07T12:30:37;163.40;;;15.47;;
5163;SDS011;2601;50.224;10.126;2023-05-07T12:33:03;161.97;;;15.40;;
5163;SDS011;2601;50.224;10.126;2023-05-07T12:35:29;161.63;;;14.57;;
5163;SDS011;2601;50.224;10.126;2023-05-07T12:37:59;161.77;;;16.30;;
5163;SDS011;2601;50.224;10.126;2023-05-07T12:40:36;157.97;;;14.30;;
5163;SDS011;2601;50.224;10.126;2023-05-07T12:43:03;159.17;;;14.40;;
5163;SDS011;2601;50.224;10.126;2023-05-07T12:45:28;160.00;;;14.13;;
5163;SDS011;2601;50.224;10.126;2023-05-07T12:47:54;156.00;;;14.80;;
5163;SDS011;2601;50.224;10.126;2023-05-07T12:50:20;157.47;;;13.63;;
5163;SDS011;2601;50.224;10.126;2023-05-07T12:52:48;156.37;;;13.83;;
5163;SDS011;2601;50.224;10.126;2023-05-07T12:55:14;162.47;;;16.23;;
5163;SDS011;2601;50.224;10.126;2023-05-07T12:57:42;158.40;;;14.77;;
5163;SDS011;2601;50.224;10.126;2023-05-07T13:00:09;162.27;;;14.70;;
5163;SDS011;2601;50.224;10.126;2023-05-07T13:02:39;161.00;;;15.27;;
5163;SDS011;2601;50.224;10.126;2023-05-07T13:05:05;159.13;;;14.73;;
5163;SDS011;2601;50.224;10.126;2023-05-07T13:07:32;156.97;;;13.97;;
5163;SDS011;2601;50.224;10.126;2023-05-07T13:09:58;157.17;;;14.47;;
5163;SDS011;2601;50.224;10.126;2023-05-07T13:12:23;156.70;;;14.87;;
5163;SDS011;2601;50.224;10.126;2023-05-07T13:14:49;160.17;;;13.80;;
5163;SDS011;2601;50.224;10.126;2023-05-07T13:17:14;157.87;;;13.90;;
5163;SDS011;2601;50.224;10.126;2023-05-07T13:19:40;160.87;;;13.37;;
5163;SDS011;2601;50.224;10.126;2023-05-07T13:22:05;156.40;;;13.77;;
5163;SDS011;2601;50.224;10.126;2023-05-07T13:24:31;162.90;;;14.13;;
5163;SDS011;2601;50.224;10.126;2023-05-07T13:26:59;165.73;;;15.53;;
5163;SDS011;2601;50.224;10.126;2023-05-07T13:29:25;165.80;;;19.87;;
5163;SDS011;2601;50.224;10.126;2023-05-07T13:31:56;160.80;;;14.80;;
5163;SDS011;2601;50.224;10.126;2023-05-07T13:34:22;156.50;;;13.87;;
5163;SDS011;2601;50.224;10.126;2023-05-07T13:36:47;159.20;;;19.33;;
5163;SDS011;2601;50.224;10.126;2023-05-07T13:39:13;158.50;;;15.50;;
5163;SDS011;2601;50.224;10.126;2023-05-07T13:41:39;164.07;;;16.13;;
5163;SDS011;2601;50.224;10.126;2023-05-07T13:44:04;159.90;;;14.97;;
5163;SDS011;2601;50.224;10.126;2023-05-07T13:46:30;155.80;;;13.50;;
5163;SDS011;2601;50.224;10.126;2023-05-07T13:48:56;155.73;;;13.27;;
5163;SDS011;2601;50.224;10.126;2023-05-07T13:51:21;163.07;;;15.50;;
5163;SDS011;2601;50.224;10.126;2023-05-07T13:53:47;159.17;;;14.60;;
5163;SDS011;2601;50.224;10.126;2023-05-07T13:56:13;158.77;;;14.20;;
5163;SDS011;2601;50.224;10.126;2023-05-07T13:58:40;162.23;;;18.50;;
5163;SDS011;2601;50.224;10.126;2023-05-07T14:01:05;156.00;;;13.83;;
5163;SDS011;2601;50.224;10.126;2023-05-07T14:03:31;161.50;;;14.80;;
5163;SDS011;2601;50.224;10.126;2023-05-07T14:05:58;159.10;;;14.90;;
5163;SDS011;2601;50.224;10.126;2023-05-07T14:08:25;161.37;;;19.17;;
5163;SDS011;2601;50.224;10.126;2023-05-07T14:10:51;156.83;;;14.63;;
5163;SDS011;2601;50.224;10.126;2023-05-07T14:13:16;158.90;;;15.10;;
5163;SDS011;2601;50.224;10.126;2023-05-07T14:15:42;160.90;;;16.30;;
5163;SDS011;2601;50.224;10.126;2023-05-07T14:18:11;160.77;;;14.73;;
5163;SDS011;2601;50.224;10.126;2023-05-07T14:20:37;157.87;;;14.00;;
5163;SDS011;2601;50.224;10.126;2023-05-07T14:23:03;157.67;;;15.20;;
5163;SDS011;2601;50.224;10.126;2023-05-07T14:25:29;157.97;;;14.17;;
5163;SDS011;2601;50.224;10.126;2023-05-07T14:27:54;160.47;;;14.87;;
5163;SDS011;2601;50.224;10.126;2023-05-07T14:30:20;158.50;;;15.40;;